sensor_id;sensor_type;location;lat;lon;timestamp;P1;durP1;ratioP1;P2;durP2;ratioP2
6358;SDS011;3212;51.460;11.868;2022-07-23T00:03:13;7.73;;;6.10;;
6358;SDS011;3212;51.460;11.868;2022-07-23T00:06:36;7.57;;;5.63;;
6358;SDS011;3212;51.460;11.868;2022-07-23T00:09:59;8.77;;;6.63;;
6358;SDS011;3212;51.460;11.868;2022-07-23T00:13:21;11.10;;;6.57;;
6358;SDS011;3212;51.460;11.868;2022-07-23T00:16:44;7.60;;;5.53;;
6358;SDS011;3212;51.460;11.868;2022-07-23T00:20:07;8.47;;;6.60;;
6358;SDS011;3212;51.460;11.868;2022-07-23T00:23:30;8.23;;;5.80;;
6358;SDS011;3212;51.460;11.868;2022-07-23T00:26:53;10.70;;;5.60;;
6358;SDS011;3212;51.460;11.868;2022-07-23T00:30:15;7.70;;;5.80;;
6358;SDS011;3212;51.460;11.868;2022-07-23T00:33:38;12.70;;;6.50;;
6358;SDS011;3212;51.460;11.868;2022-07-23T00:37:01;9.47;;;6.57;;
6358;SDS011;3212;51.460;11.868;2022-07-23T00:40:24;11.37;;;6.23;;
6358;SDS011;3212;51.460;11.868;2022-07-23T00:43:46;12.50;;;6.73;;
6358;SDS011;3212;51.460;11.868;2022-07-23T00:47:09;8.90;;;6.47;;
6358;SDS011;3212;51.460;11.868;2022-07-23T00:50:32;13.23;;;7.17;;
6358;SDS011;3212;51.460;11.868;2022-07-23T00:53:54;11.10;;;6.57;;
6358;SDS011;3212;51.460;11.868;2022-07-23T00:57:17;10.40;;;7.40;;
6358;SDS011;3212;51.460;11.868;2022-07-23T01:00:40;11.00;;;6.97;;
6358;SDS011;3212;51.460;11.868;2022-07-23T01:04:02;12.60;;;6.70;;
6358;SDS011;3212;51.460;11.868;2022-07-23T01:07:26;9.73;;;6.93;;
6358;SDS011;3212;51.460;11.868;2022-07-23T01:10:48;8.60;;;6.63;;
6358;SDS011;3212;51.460;11.868;2022-07-23T01:14:12;9.97;;;6.20;;
6358;SDS011;3212;51.460;11.868;2022-07-23T01:17:34;8.93;;;6.80;;
6358;SDS011;3212;51.460;11.868;2022-07-23T01:20:57;9.47;;;6.93;;
6358;SDS011;3212;51.460;11.868;2022-07-23T01:24:19;9.20;;;6.67;;
6358;SDS011;3212;51.460;11.868;2022-07-23T01:27:43;11.53;;;7.83;;
6358;SDS011;3212;51.460;11.868;2022-07-23T01:31:05;11.10;;;7.50;;
6358;SDS011;3212;51.460;11.868;2022-07-23T01:34:28;11.77;;;8.00;;
6358;SDS011;3212;51.460;11.868;2022-07-23T01:37:51;9.50;;;7.20;;
6358;SDS011;3212;51.460;11.868;2022-07-23T01:41:13;9.10;;;7.03;;
6358;SDS011;3212;51.460;11.868;2022-07-23T01:44:36;14.30;;;8.10;;
6358;SDS011;3212;51.460;11.868;2022-07-23T01:47:58;11.23;;;7.70;;
6358;SDS011;3212;51.460;11.868;2022-07-23T01:51:21;11.27;;;7.10;;
6358;SDS011;3212;51.460;11.868;2022-07-23T01:54:43;9.50;;;7.13;;
6358;SDS011;3212;51.460;11.868;2022-07-23T01:58:06;12.27;;;8.00;;
6358;SDS011;3212;51.460;11.868;2022-07-23T02:01:29;12.23;;;8.43;;
6358;SDS011;3212;51.460;11.868;2022-07-23T02:04:51;10.73;;;7.33;;
6358;SDS011;3212;51.460;11.868;2022-07-23T02:08:15;11.23;;;8.37;;
6358;SDS011;3212;51.460;11.868;2022-07-23T02:11:37;11.47;;;7.93;;
6358;SDS011;3212;51.460;11.868;2022-07-23T02:15:00;10.23;;;7.13;;
6358;SDS011;3212;51.460;11.868;2022-07-23T02:18:23;14.53;;;8.00;;
6358;SDS011;3212;51.460;11.868;2022-07-23T02:21:46;14.47;;;8.40;;
6358;SDS011;3212;51.460;11.868;2022-07-23T02:25:09;13.70;;;8.07;;
6358;SDS011;3212;51.460;11.868;2022-07-23T02:28:31;13.90;;;8.40;;
6358;SDS011;3212;51.460;11.868;2022-07-23T02:31:54;15.83;;;8.63;;
6358;SDS011;3212;51.460;11.868;2022-07-23T02:35:18;20.10;;;8.53;;
6358;SDS011;3212;51.460;11.868;2022-07-23T02:38:41;13.33;;;8.40;;
6358;SDS011;3212;51.460;11.868;2022-07-23T02:42:03;13.83;;;9.10;;
6358;SDS011;3212;51.460;11.868;2022-07-23T02:45:26;12.43;;;9.00;;
6358;SDS011;3212;51.460;11.868;2022-07-23T02:48:48;12.90;;;9.23;;
6358;SDS011;3212;51.460;11.868;2022-07-23T02:52:11;18.30;;;8.40;;
6358;SDS011;3212;51.460;11.868;2022-07-23T02:55:34;13.13;;;8.60;;
6358;SDS011;3212;51.460;11.868;2022-07-23T02:58:56;10.53;;;7.70;;
6358;SDS011;3212;51.460;11.868;2022-07-23T03:02:19;11.93;;;7.67;;
6358;SDS011;3212;51.460;11.868;2022-07-23T03:05:41;11.10;;;7.20;;
6358;SDS011;3212;51.460;11.868;2022-07-23T03:09:04;11.50;;;7.90;;
6358;SDS011;3212;51.460;11.868;2022-07-23T03:12:28;11.25;;;7.45;;
6358;SDS011;3212;51.460;11.868;2022-07-23T03:15:50;11.60;;;7.60;;
6358;SDS011;3212;51.460;11.868;2022-07-23T03:19:13;10.70;;;7.10;;
6358;SDS011;3212;51.460;11.868;2022-07-23T03:22:36;10.30;;;6.77;;
6358;SDS011;3212;51.460;11.868;2022-07-23T03:25:58;8.57;;;6.50;;
6358;SDS011;3212;51.460;11.868;2022-07-23T03:29:21;9.00;;;6.60;;
6358;SDS011;3212;51.460;11.868;2022-07-23T03:32:44;7.87;;;6.45;;
6358;SDS011;3212;51.460;11.868;2022-07-23T03:36:07;10.30;;;7.20;;
6358;SDS011;3212;51.460;11.868;2022-07-23T03:39:30;11.17;;;8.20;;
6358;SDS011;3212;51.460;11.868;2022-07-23T03:42:52;12.73;;;8.43;;
6358;SDS011;3212;51.460;11.868;2022-07-23T03:46:15;13.00;;;9.33;;
6358;SDS011;3212;51.460;11.868;2022-07-23T03:49:37;16.00;;;10.17;;
6358;SDS011;3212;51.460;11.868;2022-07-23T03:52:59;16.77;;;10.50;;
6358;SDS011;3212;51.460;11.868;2022-07-23T03:56:23;19.57;;;11.80;;
6358;SDS011;3212;51.460;11.868;2022-07-23T03:59:45;23.10;;;12.83;;
6358;SDS011;3212;51.460;11.868;2022-07-23T04:03:07;29.20;;;13.70;;
6358;SDS011;3212;51.460;11.868;2022-07-23T04:06:29;20.70;;;11.93;;
6358;SDS011;3212;51.460;11.868;2022-07-23T04:09:51;26.10;;;12.53;;
6358;SDS011;3212;51.460;11.868;2022-07-23T04:13:13;24.43;;;13.00;;
6358;SDS011;3212;51.460;11.868;2022-07-23T04:16:35;21.73;;;13.33;;
6358;SDS011;3212;51.460;11.868;2022-07-23T04:19:57;23.17;;;13.80;;
6358;SDS011;3212;51.460;11.868;2022-07-23T04:23:19;18.80;;;12.33;;
6358;SDS011;3212;51.460;11.868;2022-07-23T04:26:44;24.53;;;12.50;;
6358;SDS011;3212;51.460;11.868;2022-07-23T04:30:06;21.00;;;11.83;;
6358;SDS011;3212;51.460;11.868;2022-07-23T04:33:30;24.63;;;12.90;;
6358;SDS011;3212;51.460;11.868;2022-07-23T04:36:53;24.60;;;11.90;;
6358;SDS011;3212;51.460;11.868;2022-07-23T04:40:15;22.98;;;12.75;;
6358;SDS011;3212;51.460;11.868;2022-07-23T04:43:38;19.90;;;12.30;;
6358;SDS011;3212;51.460;11.868;2022-07-23T04:47:01;19.57;;;13.03;;
6358;SDS011;3212;51.460;11.868;2022-07-23T04:50:24;18.63;;;12.30;;
6358;SDS011;3212;51.460;11.868;2022-07-23T04:53:47;21.13;;;12.70;;
6358;SDS011;3212;51.460;11.868;2022-07-23T04:57:09;19.10;;;13.30;;
6358;SDS011;3212;51.460;11.868;2022-07-23T05:00:32;19.07;;;13.47;;
6358;SDS011;3212;51.460;11.868;2022-07-23T05:03:54;21.60;;;13.30;;
6358;SDS011;3212;51.460;11.868;2022-07-23T05:07:17;19.80;;;12.40;;
6358;SDS011;3212;51.460;11.868;2022-07-23T05:10:39;22.40;;;12.63;;
6358;SDS011;3212;51.460;11.868;2022-07-23T05:14:02;17.37;;;11.90;;
6358;SDS011;3212;51.460;11.868;2022-07-23T05:17:25;16.60;;;10.50;;
6358;SDS011;3212;51.460;11.868;2022-07-23T05:20:49;20.33;;;13.03;;
6358;SDS011;3212;51.460;11.868;2022-07-23T05:24:11;20.50;;;12.53;;
6358;SDS011;3212;51.460;11.868;2022-07-23T05:27:34;21.17;;;13.33;;
6358;SDS011;3212;51.460;11.868;2022-07-23T05:30:56;17.87;;;12.27;;
6358;SDS011;3212;51.460;11.868;2022-07-23T05:34:19;16.67;;;10.73;;
6358;SDS011;3212;51.460;11.868;2022-07-23T05:37:43;19.10;;;12.07;;
6358;SDS011;3212;51.460;11.868;2022-07-23T05:41:05;18.00;;;11.47;;
6358;SDS011;3212;51.460;11.868;2022-07-23T05:44:28;16.10;;;11.03;;
6358;SDS011;3212;51.460;11.868;2022-07-23T05:47:52;15.80;;;9.70;;
6358;SDS011;3212;51.460;11.868;2022-07-23T05:51:18;13.70;;;9.47;;
6358;SDS011;3212;51.460;11.868;2022-07-23T05:54:42;16.90;;;10.47;;
6358;SDS011;3212;51.460;11.868;2022-07-23T05:58:06;15.25;;;9.95;;
6358;SDS011;3212;51.460;11.868;2022-07-23T06:01:29;13.80;;;9.47;;
6358;SDS011;3212;51.460;11.868;2022-07-23T06:04:52;16.30;;;10.50;;
6358;SDS011;3212;51.460;11.868;2022-07-23T06:08:14;16.98;;;10.60;;
6358;SDS011;3212;51.460;11.868;2022-07-23T06:11:37;15.93;;;10.63;;
6358;SDS011;3212;51.460;11.868;2022-07-23T06:14:59;18.27;;;10.90;;
6358;SDS011;3212;51.460;11.868;2022-07-23T06:18:22;17.77;;;11.87;;
6358;SDS011;3212;51.460;11.868;2022-07-23T06:21:44;17.37;;;10.90;;
6358;SDS011;3212;51.460;11.868;2022-07-23T06:25:07;17.47;;;10.73;;
6358;SDS011;3212;51.460;11.868;2022-07-23T06:28:29;17.90;;;10.10;;
6358;SDS011;3212;51.460;11.868;2022-07-23T06:31:52;17.17;;;12.03;;
6358;SDS011;3212;51.460;11.868;2022-07-23T06:35:15;15.87;;;10.27;;
6358;SDS011;3212;51.460;11.868;2022-07-23T06:38:37;17.07;;;10.00;;
6358;SDS011;3212;51.460;11.868;2022-07-23T06:42:00;16.30;;;9.90;;
6358;SDS011;3212;51.460;11.868;2022-07-23T06:45:22;12.33;;;9.20;;
6358;SDS011;3212;51.460;11.868;2022-07-23T06:48:45;14.87;;;10.77;;
6358;SDS011;3212;51.460;11.868;2022-07-23T06:52:08;17.50;;;11.83;;
6358;SDS011;3212;51.460;11.868;2022-07-23T06:55:31;17.90;;;10.93;;
6358;SDS011;3212;51.460;11.868;2022-07-23T06:58:54;16.40;;;11.37;;
6358;SDS011;3212;51.460;11.868;2022-07-23T07:02:17;18.63;;;11.93;;
6358;SDS011;3212;51.460;11.868;2022-07-23T07:05:40;14.70;;;11.57;;
6358;SDS011;3212;51.460;11.868;2022-07-23T07:09:02;16.90;;;12.03;;
6358;SDS011;3212;51.460;11.868;2022-07-23T07:12:25;15.60;;;11.55;;
6358;SDS011;3212;51.460;11.868;2022-07-23T07:15:47;18.73;;;12.17;;
6358;SDS011;3212;51.460;11.868;2022-07-23T07:19:10;17.20;;;11.60;;
6358;SDS011;3212;51.460;11.868;2022-07-23T07:22:33;19.70;;;13.60;;
6358;SDS011;3212;51.460;11.868;2022-07-23T07:25:55;17.07;;;12.00;;
6358;SDS011;3212;51.460;11.868;2022-07-23T07:29:18;18.13;;;13.47;;
6358;SDS011;3212;51.460;11.868;2022-07-23T07:32:41;17.85;;;13.62;;
6358;SDS011;3212;51.460;11.868;2022-07-23T07:36:04;18.03;;;12.67;;
6358;SDS011;3212;51.460;11.868;2022-07-23T07:39:27;16.83;;;12.10;;
6358;SDS011;3212;51.460;11.868;2022-07-23T07:42:52;16.83;;;12.20;;
6358;SDS011;3212;51.460;11.868;2022-07-23T07:46:12;20.00;;;13.10;;
6358;SDS011;3212;51.460;11.868;2022-07-23T07:49:35;18.90;;;13.63;;
6358;SDS011;3212;51.460;11.868;2022-07-23T07:52:57;16.27;;;11.50;;
6358;SDS011;3212;51.460;11.868;2022-07-23T07:56:21;19.10;;;13.50;;
6358;SDS011;3212;51.460;11.868;2022-07-23T07:59:43;20.10;;;14.33;;
6358;SDS011;3212;51.460;11.868;2022-07-23T08:03:05;16.40;;;12.60;;
6358;SDS011;3212;51.460;11.868;2022-07-23T08:06:28;19.70;;;13.50;;
6358;SDS011;3212;51.460;11.868;2022-07-23T08:09:50;20.33;;;14.63;;
6358;SDS011;3212;51.460;11.868;2022-07-23T08:13:13;17.97;;;13.57;;
6358;SDS011;3212;51.460;11.868;2022-07-23T08:16:36;19.00;;;13.83;;
6358;SDS011;3212;51.460;11.868;2022-07-23T08:19:58;19.03;;;13.30;;
6358;SDS011;3212;51.460;11.868;2022-07-23T08:23:21;18.97;;;13.10;;
6358;SDS011;3212;51.460;11.868;2022-07-23T08:26:44;17.33;;;12.70;;
6358;SDS011;3212;51.460;11.868;2022-07-23T08:30:08;19.13;;;13.20;;
6358;SDS011;3212;51.460;11.868;2022-07-23T08:33:31;16.93;;;12.23;;
6358;SDS011;3212;51.460;11.868;2022-07-23T08:36:53;18.07;;;13.40;;
6358;SDS011;3212;51.460;11.868;2022-07-23T08:40:17;22.50;;;14.40;;
6358;SDS011;3212;51.460;11.868;2022-07-23T08:43:40;19.70;;;13.87;;
6358;SDS011;3212;51.460;11.868;2022-07-23T08:47:03;17.70;;;13.47;;
6358;SDS011;3212;51.460;11.868;2022-07-23T08:50:26;19.73;;;13.53;;
6358;SDS011;3212;51.460;11.868;2022-07-23T08:53:48;16.47;;;13.27;;
6358;SDS011;3212;51.460;11.868;2022-07-23T08:57:11;17.73;;;14.00;;
6358;SDS011;3212;51.460;11.868;2022-07-23T09:00:33;22.53;;;13.90;;
6358;SDS011;3212;51.460;11.868;2022-07-23T09:03:56;20.00;;;14.10;;
6358;SDS011;3212;51.460;11.868;2022-07-23T09:07:19;20.60;;;15.50;;
6358;SDS011;3212;51.460;11.868;2022-07-23T09:10:44;22.40;;;15.80;;
6358;SDS011;3212;51.460;11.868;2022-07-23T09:14:06;18.97;;;13.23;;
6358;SDS011;3212;51.460;11.868;2022-07-23T09:17:28;18.93;;;13.70;;
6358;SDS011;3212;51.460;11.868;2022-07-23T09:20:52;23.83;;;16.57;;
6358;SDS011;3212;51.460;11.868;2022-07-23T09:24:14;20.30;;;14.73;;
6358;SDS011;3212;51.460;11.868;2022-07-23T09:31:11;20.57;;;14.10;;
6358;SDS011;3212;51.460;11.868;2022-07-23T09:34:35;27.67;;;16.27;;
6358;SDS011;3212;51.460;11.868;2022-07-23T09:38:00;16.00;;;11.90;;
6358;SDS011;3212;51.460;11.868;2022-07-23T09:41:22;16.83;;;12.50;;
6358;SDS011;3212;51.460;11.868;2022-07-23T09:44:47;16.87;;;12.10;;
6358;SDS011;3212;51.460;11.868;2022-07-23T09:48:11;22.03;;;13.20;;
6358;SDS011;3212;51.460;11.868;2022-07-23T09:51:33;18.52;;;12.93;;
6358;SDS011;3212;51.460;11.868;2022-07-23T09:54:58;16.67;;;12.30;;
6358;SDS011;3212;51.460;11.868;2022-07-23T09:58:19;17.83;;;11.60;;
6358;SDS011;3212;51.460;11.868;2022-07-23T10:01:42;18.50;;;11.60;;
6358;SDS011;3212;51.460;11.868;2022-07-23T10:05:05;16.60;;;11.83;;
6358;SDS011;3212;51.460;11.868;2022-07-23T10:08:28;15.67;;;10.80;;
6358;SDS011;3212;51.460;11.868;2022-07-23T10:11:51;16.50;;;12.70;;
6358;SDS011;3212;51.460;11.868;2022-07-23T10:15:14;16.70;;;12.13;;
6358;SDS011;3212;51.460;11.868;2022-07-23T10:18:36;51.87;;;34.47;;
6358;SDS011;3212;51.460;11.868;2022-07-23T10:22:00;46.53;;;31.93;;
6358;SDS011;3212;51.460;11.868;2022-07-23T10:25:29;89.40;;;53.90;;
6358;SDS011;3212;51.460;11.868;2022-07-23T10:28:55;40.67;;;29.20;;
6358;SDS011;3212;51.460;11.868;2022-07-23T10:32:17;31.50;;;21.60;;
6358;SDS011;3212;51.460;11.868;2022-07-23T10:35:47;25.67;;;16.77;;
6358;SDS011;3212;51.460;11.868;2022-07-23T10:39:13;16.27;;;12.00;;
6358;SDS011;3212;51.460;11.868;2022-07-23T10:42:35;15.57;;;12.23;;
6358;SDS011;3212;51.460;11.868;2022-07-23T10:49:33;17.30;;;12.17;;
6358;SDS011;3212;51.460;11.868;2022-07-23T11:00:13;16.17;;;11.73;;
6358;SDS011;3212;51.460;11.868;2022-07-23T11:03:35;27.30;;;13.30;;
6358;SDS011;3212;51.460;11.868;2022-07-23T11:10:41;17.00;;;12.10;;
6358;SDS011;3212;51.460;11.868;2022-07-23T11:14:03;12.27;;;10.33;;
6358;SDS011;3212;51.460;11.868;2022-07-23T11:17:27;14.60;;;11.48;;
6358;SDS011;3212;51.460;11.868;2022-07-23T11:20:49;17.37;;;12.50;;
6358;SDS011;3212;51.460;11.868;2022-07-23T11:24:12;15.63;;;11.80;;
6358;SDS011;3212;51.460;11.868;2022-07-23T11:27:37;16.80;;;12.00;;
6358;SDS011;3212;51.460;11.868;2022-07-23T11:31:03;13.77;;;11.20;;
6358;SDS011;3212;51.460;11.868;2022-07-23T11:34:30;14.17;;;11.30;;
6358;SDS011;3212;51.460;11.868;2022-07-23T11:41:43;13.13;;;11.50;;
6358;SDS011;3212;51.460;11.868;2022-07-23T11:45:06;16.03;;;12.77;;
6358;SDS011;3212;51.460;11.868;2022-07-23T11:48:30;14.00;;;11.83;;
6358;SDS011;3212;51.460;11.868;2022-07-23T11:55:25;17.00;;;12.47;;
6358;SDS011;3212;51.460;11.868;2022-07-23T11:58:54;16.57;;;12.87;;
6358;SDS011;3212;51.460;11.868;2022-07-23T12:02:16;15.40;;;12.17;;
6358;SDS011;3212;51.460;11.868;2022-07-23T12:05:38;15.00;;;12.80;;
6358;SDS011;3212;51.460;11.868;2022-07-23T12:09:00;18.57;;;14.03;;
6358;SDS011;3212;51.460;11.868;2022-07-23T12:12:23;12.77;;;10.83;;
6358;SDS011;3212;51.460;11.868;2022-07-23T12:15:49;16.77;;;12.63;;
6358;SDS011;3212;51.460;11.868;2022-07-23T12:19:10;16.60;;;12.83;;
6358;SDS011;3212;51.460;11.868;2022-07-23T12:22:37;13.80;;;11.73;;
6358;SDS011;3212;51.460;11.868;2022-07-23T12:26:01;16.90;;;12.47;;
6358;SDS011;3212;51.460;11.868;2022-07-23T12:29:22;17.00;;;14.27;;
6358;SDS011;3212;51.460;11.868;2022-07-23T12:32:45;16.93;;;13.57;;
6358;SDS011;3212;51.460;11.868;2022-07-23T12:36:08;17.00;;;14.73;;
6358;SDS011;3212;51.460;11.868;2022-07-23T12:39:30;19.40;;;15.23;;
6358;SDS011;3212;51.460;11.868;2022-07-23T12:42:55;16.17;;;13.50;;
6358;SDS011;3212;51.460;11.868;2022-07-23T12:46:17;15.60;;;13.10;;
6358;SDS011;3212;51.460;11.868;2022-07-23T12:49:39;17.60;;;15.00;;
6358;SDS011;3212;51.460;11.868;2022-07-23T12:53:04;17.40;;;14.67;;
6358;SDS011;3212;51.460;11.868;2022-07-23T12:56:27;17.73;;;14.57;;
6358;SDS011;3212;51.460;11.868;2022-07-23T13:03:33;16.77;;;12.37;;
6358;SDS011;3212;51.460;11.868;2022-07-23T13:06:57;12.47;;;10.23;;
6358;SDS011;3212;51.460;11.868;2022-07-23T13:10:19;11.80;;;10.53;;
6358;SDS011;3212;51.460;11.868;2022-07-23T13:13:41;12.70;;;9.67;;
6358;SDS011;3212;51.460;11.868;2022-07-23T13:17:04;12.47;;;11.00;;
6358;SDS011;3212;51.460;11.868;2022-07-23T13:20:27;12.80;;;11.43;;
6358;SDS011;3212;51.460;11.868;2022-07-23T13:23:49;13.70;;;11.20;;
6358;SDS011;3212;51.460;11.868;2022-07-23T13:27:12;14.60;;;10.63;;
6358;SDS011;3212;51.460;11.868;2022-07-23T13:30:36;11.57;;;9.87;;
6358;SDS011;3212;51.460;11.868;2022-07-23T13:33:59;13.00;;;8.93;;
6358;SDS011;3212;51.460;11.868;2022-07-23T13:37:21;11.10;;;9.40;;
6358;SDS011;3212;51.460;11.868;2022-07-23T13:40:47;9.33;;;8.33;;
6358;SDS011;3212;51.460;11.868;2022-07-23T13:44:07;10.17;;;9.00;;
6358;SDS011;3212;51.460;11.868;2022-07-23T13:47:30;9.40;;;8.40;;
6358;SDS011;3212;51.460;11.868;2022-07-23T13:50:52;9.23;;;8.30;;
6358;SDS011;3212;51.460;11.868;2022-07-23T13:54:15;9.43;;;8.53;;
6358;SDS011;3212;51.460;11.868;2022-07-23T13:57:37;9.43;;;8.53;;
6358;SDS011;3212;51.460;11.868;2022-07-23T14:01:00;9.47;;;8.13;;
6358;SDS011;3212;51.460;11.868;2022-07-23T14:04:23;9.87;;;7.53;;
6358;SDS011;3212;51.460;11.868;2022-07-23T14:07:46;9.63;;;7.87;;
6358;SDS011;3212;51.460;11.868;2022-07-23T14:11:09;7.73;;;7.00;;
6358;SDS011;3212;51.460;11.868;2022-07-23T14:14:32;7.17;;;6.47;;
6358;SDS011;3212;51.460;11.868;2022-07-23T14:17:55;8.90;;;7.60;;
6358;SDS011;3212;51.460;11.868;2022-07-23T14:21:18;8.17;;;7.33;;
6358;SDS011;3212;51.460;11.868;2022-07-23T14:24:47;9.13;;;7.30;;
6358;SDS011;3212;51.460;11.868;2022-07-23T14:28:10;10.27;;;7.40;;
6358;SDS011;3212;51.460;11.868;2022-07-23T14:31:33;7.60;;;6.90;;
6358;SDS011;3212;51.460;11.868;2022-07-23T14:34:55;7.70;;;6.90;;
6358;SDS011;3212;51.460;11.868;2022-07-23T14:38:17;7.53;;;6.83;;
6358;SDS011;3212;51.460;11.868;2022-07-23T14:41:41;7.30;;;6.60;;
6358;SDS011;3212;51.460;11.868;2022-07-23T14:45:03;6.70;;;5.90;;
6358;SDS011;3212;51.460;11.868;2022-07-23T14:48:27;8.30;;;7.60;;
6358;SDS011;3212;51.460;11.868;2022-07-23T14:51:49;9.80;;;8.80;;
6358;SDS011;3212;51.460;11.868;2022-07-23T14:55:13;7.63;;;6.93;;
6358;SDS011;3212;51.460;11.868;2022-07-23T14:58:35;8.53;;;7.70;;
6358;SDS011;3212;51.460;11.868;2022-07-23T15:01:57;10.70;;;8.13;;
6358;SDS011;3212;51.460;11.868;2022-07-23T15:05:20;8.57;;;7.80;;
6358;SDS011;3212;51.460;11.868;2022-07-23T15:08:43;9.03;;;7.90;;
6358;SDS011;3212;51.460;11.868;2022-07-23T15:12:06;11.27;;;7.73;;
6358;SDS011;3212;51.460;11.868;2022-07-23T15:15:28;10.03;;;8.13;;
6358;SDS011;3212;51.460;11.868;2022-07-23T15:18:51;10.70;;;8.67;;
6358;SDS011;3212;51.460;11.868;2022-07-23T15:22:13;9.00;;;8.07;;
6358;SDS011;3212;51.460;11.868;2022-07-23T15:25:36;9.57;;;8.03;;
6358;SDS011;3212;51.460;11.868;2022-07-23T15:28:59;9.50;;;8.50;;
6358;SDS011;3212;51.460;11.868;2022-07-23T15:32:22;8.23;;;7.33;;
6358;SDS011;3212;51.460;11.868;2022-07-23T15:35:45;8.30;;;7.50;;
6358;SDS011;3212;51.460;11.868;2022-07-23T15:39:07;13.33;;;8.20;;
6358;SDS011;3212;51.460;11.868;2022-07-23T15:42:30;8.23;;;7.43;;
6358;SDS011;3212;51.460;11.868;2022-07-23T15:45:52;8.53;;;7.77;;
6358;SDS011;3212;51.460;11.868;2022-07-23T15:49:15;7.77;;;7.10;;
6358;SDS011;3212;51.460;11.868;2022-07-23T15:52:38;8.27;;;7.57;;
6358;SDS011;3212;51.460;11.868;2022-07-23T15:56:03;9.17;;;8.27;;
6358;SDS011;3212;51.460;11.868;2022-07-23T15:59:24;8.40;;;7.60;;
6358;SDS011;3212;51.460;11.868;2022-07-23T16:02:47;8.00;;;7.30;;
6358;SDS011;3212;51.460;11.868;2022-07-23T16:06:09;7.27;;;6.67;;
6358;SDS011;3212;51.460;11.868;2022-07-23T16:09:32;10.10;;;6.67;;
6358;SDS011;3212;51.460;11.868;2022-07-23T16:12:54;6.20;;;5.60;;
6358;SDS011;3212;51.460;11.868;2022-07-23T16:16:17;4.60;;;4.20;;
6358;SDS011;3212;51.460;11.868;2022-07-23T16:19:39;4.50;;;4.10;;
6358;SDS011;3212;51.460;11.868;2022-07-23T16:23:01;5.20;;;4.77;;
6358;SDS011;3212;51.460;11.868;2022-07-23T16:26:24;6.53;;;5.03;;
6358;SDS011;3212;51.460;11.868;2022-07-23T16:29:47;4.80;;;4.40;;
6358;SDS011;3212;51.460;11.868;2022-07-23T16:33:09;7.57;;;4.23;;
6358;SDS011;3212;51.460;11.868;2022-07-23T16:36:32;4.53;;;4.07;;
6358;SDS011;3212;51.460;11.868;2022-07-23T16:39:55;4.30;;;3.90;;
6358;SDS011;3212;51.460;11.868;2022-07-23T16:43:18;5.90;;;3.67;;
6358;SDS011;3212;51.460;11.868;2022-07-23T16:46:40;4.30;;;4.00;;
6358;SDS011;3212;51.460;11.868;2022-07-23T16:50:04;3.93;;;3.10;;
6358;SDS011;3212;51.460;11.868;2022-07-23T16:53:27;5.60;;;3.43;;
6358;SDS011;3212;51.460;11.868;2022-07-23T16:56:53;4.30;;;3.30;;
6358;SDS011;3212;51.460;11.868;2022-07-23T17:00:15;3.90;;;3.03;;
6358;SDS011;3212;51.460;11.868;2022-07-23T17:03:37;2.87;;;2.50;;
6358;SDS011;3212;51.460;11.868;2022-07-23T17:07:00;2.70;;;2.50;;
6358;SDS011;3212;51.460;11.868;2022-07-23T17:10:22;2.63;;;2.43;;
6358;SDS011;3212;51.460;11.868;2022-07-23T17:13:45;3.70;;;3.00;;
6358;SDS011;3212;51.460;11.868;2022-07-23T17:17:07;2.30;;;2.10;;
6358;SDS011;3212;51.460;11.868;2022-07-23T17:20:30;3.50;;;2.87;;
6358;SDS011;3212;51.460;11.868;2022-07-23T17:23:52;2.90;;;2.70;;
6358;SDS011;3212;51.460;11.868;2022-07-23T17:27:15;4.40;;;4.00;;
6358;SDS011;3212;51.460;11.868;2022-07-23T17:30:38;3.30;;;3.10;;
6358;SDS011;3212;51.460;11.868;2022-07-23T17:34:00;6.13;;;5.17;;
6358;SDS011;3212;51.460;11.868;2022-07-23T17:37:23;3.73;;;3.43;;
6358;SDS011;3212;51.460;11.868;2022-07-23T17:40:45;9.60;;;7.27;;
6358;SDS011;3212;51.460;11.868;2022-07-23T17:44:08;6.23;;;5.40;;
6358;SDS011;3212;51.460;11.868;2022-07-23T17:47:30;44.90;;;28.47;;
6358;SDS011;3212;51.460;11.868;2022-07-23T17:50:53;3.93;;;3.63;;
6358;SDS011;3212;51.460;11.868;2022-07-23T17:54:16;2.60;;;2.40;;
6358;SDS011;3212;51.460;11.868;2022-07-23T17:57:38;4.20;;;3.43;;
6358;SDS011;3212;51.460;11.868;2022-07-23T18:01:02;2.30;;;2.20;;
6358;SDS011;3212;51.460;11.868;2022-07-23T18:04:30;16.57;;;13.33;;
6358;SDS011;3212;51.460;11.868;2022-07-23T18:08:06;7.10;;;3.90;;
6358;SDS011;3212;51.460;11.868;2022-07-23T18:11:29;2.80;;;2.60;;
6358;SDS011;3212;51.460;11.868;2022-07-23T18:14:52;6.07;;;4.70;;
6358;SDS011;3212;51.460;11.868;2022-07-23T18:18:14;5.13;;;3.10;;
6358;SDS011;3212;51.460;11.868;2022-07-23T18:21:37;3.50;;;2.43;;
6358;SDS011;3212;51.460;11.868;2022-07-23T18:24:59;4.30;;;2.67;;
6358;SDS011;3212;51.460;11.868;2022-07-23T18:28:22;7.30;;;6.50;;
6358;SDS011;3212;51.460;11.868;2022-07-23T18:31:44;2.83;;;2.37;;
6358;SDS011;3212;51.460;11.868;2022-07-23T18:35:06;2.30;;;1.93;;
6358;SDS011;3212;51.460;11.868;2022-07-23T18:38:29;3.57;;;2.40;;
6358;SDS011;3212;51.460;11.868;2022-07-23T18:41:52;2.40;;;1.73;;
6358;SDS011;3212;51.460;11.868;2022-07-23T18:45:15;2.33;;;2.13;;
6358;SDS011;3212;51.460;11.868;2022-07-23T18:48:38;2.20;;;2.00;;
6358;SDS011;3212;51.460;11.868;2022-07-23T18:52:02;1.90;;;1.80;;
6358;SDS011;3212;51.460;11.868;2022-07-23T18:55:25;2.17;;;2.00;;
6358;SDS011;3212;51.460;11.868;2022-07-23T18:58:48;2.37;;;2.10;;
6358;SDS011;3212;51.460;11.868;2022-07-23T19:02:11;4.43;;;2.50;;
6358;SDS011;3212;51.460;11.868;2022-07-23T19:05:34;2.23;;;2.03;;
6358;SDS011;3212;51.460;11.868;2022-07-23T19:08:57;3.07;;;2.13;;
6358;SDS011;3212;51.460;11.868;2022-07-23T19:12:20;3.23;;;1.83;;
6358;SDS011;3212;51.460;11.868;2022-07-23T19:15:43;3.35;;;2.28;;
6358;SDS011;3212;51.460;11.868;2022-07-23T19:19:05;3.37;;;2.27;;
6358;SDS011;3212;51.460;11.868;2022-07-23T19:22:27;2.57;;;2.17;;
6358;SDS011;3212;51.460;11.868;2022-07-23T19:25:50;2.57;;;2.37;;
6358;SDS011;3212;51.460;11.868;2022-07-23T19:29:13;2.97;;;2.67;;
6358;SDS011;3212;51.460;11.868;2022-07-23T19:32:36;2.27;;;2.10;;
6358;SDS011;3212;51.460;11.868;2022-07-23T19:35:59;2.53;;;1.80;;
6358;SDS011;3212;51.460;11.868;2022-07-23T19:39:23;3.03;;;2.53;;
6358;SDS011;3212;51.460;11.868;2022-07-23T19:42:45;2.37;;;1.80;;
6358;SDS011;3212;51.460;11.868;2022-07-23T19:46:09;2.07;;;1.80;;
6358;SDS011;3212;51.460;11.868;2022-07-23T19:49:31;3.40;;;1.87;;
6358;SDS011;3212;51.460;11.868;2022-07-23T19:52:55;1.93;;;1.77;;
6358;SDS011;3212;51.460;11.868;2022-07-23T19:56:17;2.17;;;1.87;;
6358;SDS011;3212;51.460;11.868;2022-07-23T19:59:41;2.90;;;1.80;;
6358;SDS011;3212;51.460;11.868;2022-07-23T20:03:04;2.50;;;2.30;;
6358;SDS011;3212;51.460;11.868;2022-07-23T20:06:26;4.70;;;1.90;;
6358;SDS011;3212;51.460;11.868;2022-07-23T20:09:49;3.13;;;2.00;;
6358;SDS011;3212;51.460;11.868;2022-07-23T20:13:12;3.70;;;2.07;;
6358;SDS011;3212;51.460;11.868;2022-07-23T20:16:35;2.13;;;1.90;;
6358;SDS011;3212;51.460;11.868;2022-07-23T20:19:57;7.17;;;2.17;;
6358;SDS011;3212;51.460;11.868;2022-07-23T20:23:20;2.10;;;1.70;;
6358;SDS011;3212;51.460;11.868;2022-07-23T20:26:44;2.23;;;1.67;;
6358;SDS011;3212;51.460;11.868;2022-07-23T20:30:06;8.00;;;7.10;;
6358;SDS011;3212;51.460;11.868;2022-07-23T20:33:29;18.23;;;12.60;;
6358;SDS011;3212;51.460;11.868;2022-07-23T20:36:51;3.93;;;3.50;;
6358;SDS011;3212;51.460;11.868;2022-07-23T20:40:14;4.13;;;2.00;;
6358;SDS011;3212;51.460;11.868;2022-07-23T20:43:36;3.33;;;1.73;;
6358;SDS011;3212;51.460;11.868;2022-07-23T20:46:59;2.50;;;1.60;;
6358;SDS011;3212;51.460;11.868;2022-07-23T20:50:22;2.60;;;1.90;;
6358;SDS011;3212;51.460;11.868;2022-07-23T20:53:45;1.77;;;1.67;;